Terminal Aerodrome Forecast
Issued by NWS Charleston, WV

Current Version | Previous Version | Text Only | Print | Product List | Glossary Off
Versions: 1 2 3 4 5 6 7 8 9 10 11 12 13 14 15 16 17 18 19 20 21 22

000
FTUS41 KRLX 181439 AAA
TAFCRW
TAF AMD
KCRW 181439Z 1815/1912 29005KT P6SM SCT025
     FM181600 17004KT P6SM SCT070
     FM182000 11003KT P6SM FEW250
     FM190900 15006KT 6SM -SHRA BKN030=

USA.gov is the U.S. government's official web portal to all federal, state and local government web resources and services.